Terminal Aerodrome Forecast
Issued by NWS

Home | Current Version | Previous Version | Graphics & Text | Print | Product List | Glossary On
Versions: 1 2 3 4 5 6 7 8 9 10 11 12 13 14 15 16 17 18 19 20
530
FTUS43 KICT 180520
TAFCNU
TAF
KCNU 180520Z 1806/1906 18005KT P6SM BKN250
     FM181300 19010KT P6SM BKN025
     FM181500 19010KT P6SM BKN035
     FM181900 18012KT P6SM SCT050
     FM190500 21005KT P6SM VCTS SCT015 BKN060CB=

USA.gov is the U.S. government's official web portal to all federal, state and local government web resources and services.